createdAt,value
2023-03-27T00:03:21.265Z,33.62
2023-03-27T00:07:21.173Z,33.67
2023-03-27T00:11:21.163Z,33.64
2023-03-27T00:15:21.121Z,33.68
2023-03-27T00:19:21.062Z,33.70
2023-03-27T00:23:21.271Z,33.62
2023-03-27T00:27:21.260Z,33.68
2023-03-27T00:31:21.223Z,33.68
2023-03-27T00:35:21.182Z,33.62
2023-03-27T00:39:21.142Z,33.63
2023-03-27T00:43:21.104Z,33.63
2023-03-27T00:47:21.047Z,33.64
2023-03-27T00:51:21.036Z,33.65
2023-03-27T00:55:20.987Z,33.62
2023-03-27T00:59:20.947Z,33.60
2023-03-27T01:03:21.165Z,33.64
2023-03-27T01:07:21.094Z,33.64
2023-03-27T01:11:21.043Z,33.64
2023-03-27T01:15:21.012Z,33.65
2023-03-27T01:19:20.973Z,33.63
2023-03-27T01:23:36.069Z,33.65
2023-03-27T01:27:21.890Z,33.62
2023-03-27T01:31:20.985Z,33.60
2023-03-27T01:35:20.936Z,33.60
2023-03-27T01:39:20.846Z,33.59
2023-03-27T01:43:20.827Z,33.63
2023-03-27T01:47:20.776Z,33.63
2023-03-27T01:51:20.762Z,33.64
2023-03-27T01:55:20.706Z,33.63
2023-03-27T01:59:20.663Z,33.60
2023-03-27T02:03:20.667Z,33.61
2023-03-27T02:07:20.602Z,33.63
2023-03-27T02:11:20.553Z,33.62
2023-03-27T02:15:22.411Z,33.60
2023-03-27T02:19:21.479Z,33.61
2023-03-27T02:23:20.465Z,33.63
2023-03-27T02:27:20.397Z,33.65
2023-03-27T02:31:31.838Z,33.61
2023-03-27T02:35:21.388Z,33.62
2023-03-27T02:39:20.328Z,33.59
2023-03-27T02:43:20.350Z,33.60
2023-03-27T02:51:20.219Z,33.60
2023-03-27T02:55:20.160Z,33.59
2023-03-27T02:59:20.175Z,33.60
2023-03-27T06:19:26.195Z,33.22
2023-03-27T10:15:19.053Z,33.19
2023-03-27T11:15:18.794Z,36.72
2023-03-27T11:43:19.021Z,36.85
2023-03-27T11:51:18.948Z,36.24
2023-03-27T11:59:18.848Z,36.00
2023-03-27T12:07:26.350Z,35.85
2023-03-27T12:15:18.746Z,35.65
2023-03-27T12:19:28.505Z,35.66
2023-03-27T12:27:18.622Z,35.30
2023-03-27T12:31:18.606Z,34.81
2023-03-27T12:35:22.005Z,34.52
2023-03-27T12:39:18.494Z,34.31
2023-03-27T12:47:18.429Z,34.27
2023-03-27T12:51:18.402Z,34.18
2023-03-27T12:55:18.377Z,34.10
2023-03-27T12:59:18.307Z,34.08
2023-03-27T13:03:18.395Z,33.96
2023-03-27T13:07:18.252Z,33.90
2023-03-27T13:11:18.232Z,33.87
2023-03-27T13:15:18.261Z,33.87
2023-03-27T13:19:18.173Z,33.73
2023-03-27T13:23:18.114Z,33.72
2023-03-27T13:27:18.072Z,33.70
2023-03-27T13:31:18.076Z,33.64
2023-03-27T13:35:17.981Z,33.58
2023-03-27T13:39:18.115Z,33.50
2023-03-27T13:43:17.922Z,33.54
2023-03-27T13:47:17.876Z,33.55
2023-03-27T13:51:17.825Z,33.40
2023-03-27T13:55:17.838Z,33.40
2023-03-27T13:59:17.801Z,33.31
2023-03-27T14:03:17.973Z,33.23
2023-03-27T14:07:17.706Z,33.27
2023-03-27T14:11:17.680Z,33.23
2023-03-27T14:15:17.848Z,33.17
2023-03-27T14:19:17.588Z,33.07
2023-03-27T14:23:17.582Z,33.04
2023-03-27T14:27:17.570Z,32.99
2023-03-27T14:31:17.505Z,32.96
2023-03-27T14:35:17.475Z,33.01
2023-03-27T14:39:17.483Z,33.07
2023-03-27T14:43:17.582Z,33.01
2023-03-27T14:47:17.688Z,32.94
2023-03-27T14:51:17.891Z,32.98
2023-03-27T14:55:17.876Z,32.98
2023-03-27T14:59:17.991Z,33.05
2023-03-27T15:03:18.111Z,33.03
2023-03-27T15:07:18.198Z,33.03
2023-03-27T15:11:18.346Z,33.06
2023-03-27T15:15:18.469Z,33.06
2023-03-27T15:19:18.596Z,33.06
2023-03-27T15:23:18.736Z,33.06
2023-03-27T15:27:18.864Z,33.07
2023-03-27T15:31:19.018Z,33.04
2023-03-27T15:35:19.170Z,33.00
2023-03-27T15:39:19.230Z,32.97
2023-03-27T15:43:19.393Z,32.98
2023-03-27T15:47:19.481Z,32.88
2023-03-27T15:51:19.684Z,32.88
2023-03-27T15:55:19.733Z,32.86
2023-03-27T15:59:19.839Z,32.86
2023-03-27T16:03:20.439Z,32.92
2023-03-27T16:07:20.110Z,32.91
2023-03-27T16:11:20.237Z,32.92
2023-03-27T16:15:20.341Z,32.88
2023-03-27T16:19:20.500Z,32.90
2023-03-27T16:23:20.637Z,32.84
2023-03-27T16:27:20.773Z,32.83
2023-03-27T16:31:20.932Z,32.80
2023-03-27T16:35:21.069Z,32.81
2023-03-27T16:39:21.181Z,32.78
2023-03-27T16:43:21.340Z,32.77
2023-03-27T16:47:21.720Z,32.79
2023-03-27T16:51:21.634Z,32.72
2023-03-27T16:55:21.816Z,32.68
2023-03-27T16:59:22.022Z,32.64
2023-03-27T17:03:22.129Z,32.68
2023-03-27T17:07:22.275Z,32.62
2023-03-27T17:11:22.426Z,32.64
2023-03-27T17:15:22.644Z,32.56
2023-03-27T17:19:22.752Z,32.60
2023-03-27T17:23:22.905Z,32.56
2023-03-27T20:03:25.234Z,31.53
2023-03-27T20:39:24.939Z,31.29
2023-03-27T20:43:24.912Z,31.25
2023-03-27T20:47:24.913Z,31.23
2023-03-27T20:51:25.175Z,31.23
2023-03-27T20:55:33.701Z,31.23
2023-03-27T21:03:24.785Z,31.20
2023-03-27T21:07:24.718Z,31.19
2023-03-27T21:11:24.674Z,31.15
2023-03-27T21:15:24.660Z,31.19
2023-03-27T21:19:24.642Z,31.17
2023-03-27T21:23:24.573Z,31.13
2023-03-27T21:27:24.514Z,31.13
2023-03-27T21:31:24.629Z,31.12
2023-03-27T21:35:24.494Z,31.15
2023-03-27T21:39:24.439Z,31.11
2023-03-27T21:43:24.395Z,31.13
2023-03-27T21:47:31.690Z,31.13
2023-03-27T21:51:25.342Z,31.12
2023-03-27T21:55:24.267Z,31.13
2023-03-27T21:59:24.426Z,31.13
2023-03-27T22:03:24.664Z,31.16
2023-03-27T22:07:24.832Z,31.09
2023-03-27T22:11:25.021Z,31.10
2023-03-27T22:15:25.184Z,31.09
2023-03-27T22:19:25.323Z,31.07
2023-03-27T22:23:25.561Z,31.10
2023-03-27T22:27:25.623Z,31.09
2023-03-27T22:31:25.776Z,31.09
2023-03-27T22:35:25.865Z,31.07
2023-03-27T22:39:25.908Z,31.07
2023-03-27T22:43:26.146Z,31.10
2023-03-27T22:47:26.139Z,31.10
2023-03-27T22:51:26.230Z,31.06
2023-03-27T22:55:26.393Z,31.06
2023-03-27T22:59:26.531Z,31.02
2023-03-27T23:03:26.708Z,31.04
2023-03-27T23:07:26.683Z,31.01
2023-03-27T23:11:26.806Z,31.04
2023-03-27T23:15:30.184Z,31.00
2023-03-27T23:19:26.900Z,31.01
2023-03-27T23:23:26.897Z,31.00
2023-03-27T23:27:26.846Z,31.04
2023-03-27T23:31:26.838Z,31.01
2023-03-27T23:35:26.766Z,31.03
2023-03-27T23:39:26.715Z,31.01
2023-03-27T23:43:26.660Z,30.97
2023-03-27T23:47:26.681Z,30.93
2023-03-27T23:51:26.594Z,30.93
2023-03-27T23:55:26.550Z,30.99
2023-03-27T23:59:26.525Z,30.91
